Terminal Aerodrome Forecast
Issued by NWS Pocatello, ID

Home | Current Version | Previous Version | Text Only | Print | Product List | Glossary On
Versions: 1 2 3 4 5 6 7 8 9 10 11 12 13 14 15 16 17 18 19 20 21 22 23 24
000
FTUS45 KPIH 251127
TAFBYI
TAF
KBYI 251127Z 2512/2612 VRB05KT P6SM BKN100 BKN180
     FM251700 27010KT P6SM FEW080 SCT180
     FM252000 29015KT P6SM FEW080 FEW180
     FM260100 VRB05KT P6SM FEW180=

USA.gov is the U.S. government's official web portal to all federal, state and local government web resources and services.